createdAt,value
2018-03-06T00:00:54.104Z,16.23
2018-03-06T00:03:23.221Z,14.77
2018-03-06T00:05:51.574Z,15.50
2018-03-06T00:08:19.943Z,14.77
2018-03-06T00:10:48.377Z,16.20
2018-03-06T00:13:16.719Z,15.97
2018-03-06T00:15:45.819Z,15.67
2018-03-06T00:18:14.214Z,15.60
2018-03-06T00:20:42.606Z,16.00
2018-03-06T00:23:10.965Z,16.30
2018-03-06T00:25:39.310Z,16.40
2018-03-06T00:28:08.071Z,16.13
2018-03-06T00:30:36.417Z,16.60
2018-03-06T00:33:04.792Z,17.53
2018-03-06T00:35:33.897Z,16.30
2018-03-06T00:38:02.241Z,16.57
2018-03-06T00:40:30.594Z,17.70
2018-03-06T00:42:58.954Z,16.63
2018-03-06T00:45:27.641Z,16.60
2018-03-06T00:47:56.005Z,16.50
2018-03-06T00:50:24.412Z,16.60
2018-03-06T00:52:52.807Z,18.77
2018-03-06T00:55:22.263Z,16.60
2018-03-06T00:57:50.623Z,17.53
2018-03-06T01:00:19.805Z,18.63
2018-03-06T01:02:49.265Z,18.27
2018-03-06T01:05:17.611Z,18.27
2018-03-06T01:07:46.014Z,17.67
2018-03-06T01:10:14.367Z,19.03
2018-03-06T01:12:42.719Z,19.13
2018-03-06T01:15:11.351Z,17.40
2018-03-06T01:17:39.721Z,19.27
2018-03-06T01:20:08.078Z,18.80
2018-03-06T01:22:37.195Z,19.00
2018-03-06T01:25:05.599Z,18.87
2018-03-06T01:27:33.953Z,18.33
2018-03-06T01:30:02.352Z,19.70
2018-03-06T01:32:30.733Z,18.50
2018-03-06T01:34:59.087Z,19.50
2018-03-06T01:37:27.502Z,19.70
2018-03-06T01:39:55.854Z,19.40
2018-03-06T01:42:24.201Z,19.37
2018-03-06T01:44:53.336Z,20.37
2018-03-06T01:47:21.684Z,19.83
2018-03-06T01:49:50.787Z,22.63
2018-03-06T01:52:19.914Z,20.60
2018-03-06T01:54:48.284Z,21.37
2018-03-06T01:57:16.632Z,22.03
2018-03-06T01:59:45.761Z,22.87
2018-03-06T02:02:14.154Z,22.50
2018-03-06T02:04:42.498Z,21.83
2018-03-06T02:07:11.621Z,23.90
2018-03-06T02:09:39.972Z,21.93
2018-03-06T02:12:09.422Z,22.97
2018-03-06T02:14:37.786Z,22.67
2018-03-06T02:17:06.121Z,22.73
2018-03-06T02:19:34.546Z,22.73
2018-03-06T02:22:02.910Z,25.27
2018-03-06T02:24:31.251Z,23.83
2018-03-06T02:26:59.605Z,24.90
2018-03-06T02:29:28.080Z,23.90
2018-03-06T02:31:56.439Z,24.13
2018-03-06T02:34:24.834Z,24.47
2018-03-06T02:36:53.179Z,28.70
2018-03-06T02:39:21.533Z,25.67
2018-03-06T02:41:49.875Z,24.07
2018-03-06T02:44:18.245Z,24.13
2018-03-06T02:46:46.593Z,23.93
2018-03-06T02:49:14.959Z,25.43
2018-03-06T02:51:44.453Z,25.00
2018-03-06T02:54:12.807Z,24.50
2018-03-06T02:56:41.153Z,26.43
2018-03-06T02:59:09.509Z,26.10
2018-03-06T03:01:37.859Z,27.47
2018-03-06T03:04:06.212Z,28.20
2018-03-06T03:06:34.564Z,27.33
2018-03-06T03:09:02.949Z,30.83
2018-03-06T03:11:31.327Z,30.13
2018-03-06T03:13:59.825Z,30.77
2018-03-06T03:16:28.178Z,32.00
2018-03-06T03:18:56.530Z,31.43
2018-03-06T03:21:25.649Z,33.17
2018-03-06T03:23:54.041Z,32.80
2018-03-06T03:26:22.387Z,32.40
2018-03-06T03:28:51.495Z,34.70
2018-03-06T03:31:20.618Z,34.13
2018-03-06T03:33:48.996Z,34.30
2018-03-06T03:36:17.846Z,34.77
2018-03-06T03:38:46.996Z,37.83
2018-03-06T03:41:15.363Z,36.93
2018-03-06T03:43:43.736Z,35.73
2018-03-06T03:46:12.092Z,33.20
2018-03-06T03:48:41.211Z,35.53
2018-03-06T03:51:09.552Z,33.87
2018-03-06T03:53:38.669Z,35.77
2018-03-06T03:56:07.002Z,35.17
2018-03-06T03:58:35.360Z,34.77
2018-03-06T04:01:03.698Z,34.73
2018-03-06T04:03:32.816Z,35.40
2018-03-06T04:06:01.188Z,37.60
2018-03-06T04:08:29.638Z,37.63
2018-03-06T04:10:58.782Z,39.57
2018-03-06T04:13:27.193Z,38.90
2018-03-06T04:15:55.595Z,42.67
2018-03-06T04:18:24.739Z,41.97
2018-03-06T04:20:53.135Z,45.03
2018-03-06T04:23:21.480Z,43.80
2018-03-06T04:25:49.861Z,45.20
2018-03-06T04:28:18.215Z,48.13
2018-03-06T04:30:46.590Z,46.37
2018-03-06T04:33:14.939Z,47.53
2018-03-06T04:35:43.298Z,45.63
2018-03-06T04:38:11.656Z,45.63
2018-03-06T04:40:40.004Z,46.07
2018-03-06T04:43:09.141Z,46.67
2018-03-06T04:45:37.512Z,52.43
2018-03-06T04:48:05.880Z,52.27
2018-03-06T04:50:35.081Z,49.40
2018-03-06T04:53:04.251Z,47.63
2018-03-06T04:55:32.620Z,47.80
2018-03-06T04:58:00.974Z,46.67
2018-03-06T05:00:29.337Z,49.33
2018-03-06T05:02:57.684Z,48.60
2018-03-06T05:05:26.821Z,51.63
2018-03-06T05:07:55.174Z,47.73
2018-03-06T05:10:23.526Z,51.23
2018-03-06T05:12:52.656Z,64.50
2018-03-06T05:15:21.352Z,57.73
2018-03-06T05:17:49.702Z,51.10
2018-03-06T05:20:18.838Z,51.80
2018-03-06T05:22:47.203Z,50.27
2018-03-06T05:25:15.653Z,51.93
2018-03-06T05:27:44.801Z,49.80
2018-03-06T05:30:13.154Z,53.63
2018-03-06T05:32:41.522Z,52.67
2018-03-06T05:35:09.889Z,53.43
2018-03-06T05:37:39.016Z,54.67
2018-03-06T05:40:07.441Z,53.13
2018-03-06T05:42:35.836Z,54.33
2018-03-06T05:45:04.211Z,54.40
2018-03-06T05:47:32.648Z,53.10
2018-03-06T05:50:01.021Z,54.03
2018-03-06T05:52:29.395Z,53.53
2018-03-06T05:54:57.847Z,52.77
2018-03-06T05:57:27.004Z,56.03
2018-03-06T05:59:55.477Z,53.87
2018-03-06T06:02:23.828Z,55.03
2018-03-06T06:04:52.268Z,54.93
2018-03-06T06:07:20.651Z,54.03
2018-03-06T06:09:49.788Z,55.60
2018-03-06T06:12:18.259Z,56.17
2018-03-06T06:14:47.198Z,57.60
2018-03-06T06:17:15.561Z,54.63
2018-03-06T06:19:43.915Z,57.07
2018-03-06T06:22:12.302Z,54.50
2018-03-06T06:24:40.852Z,55.10
2018-03-06T06:27:09.981Z,55.10
2018-03-06T06:29:38.380Z,55.57
2018-03-06T06:32:06.791Z,56.67
2018-03-06T06:34:35.393Z,54.80
2018-03-06T06:37:04.512Z,57.57
2018-03-06T06:39:32.882Z,58.90
2018-03-06T06:42:01.307Z,57.17
2018-03-06T06:44:29.674Z,57.33
2018-03-06T06:46:58.020Z,56.37
2018-03-06T06:49:26.517Z,53.33
2018-03-06T06:51:54.927Z,54.67
2018-03-06T06:54:23.282Z,57.27
2018-03-06T06:56:51.646Z,55.97
2018-03-06T06:59:20.033Z,55.20
2018-03-06T07:01:48.391Z,54.60
2018-03-06T07:04:16.826Z,53.80
2018-03-06T07:06:45.214Z,54.23
2018-03-06T07:09:13.575Z,57.57
2018-03-06T07:11:41.972Z,53.20
2018-03-06T07:14:10.342Z,53.43
2018-03-06T07:16:38.737Z,50.80
2018-03-06T07:19:07.100Z,50.13
2018-03-06T07:21:35.457Z,52.73
2018-03-06T07:24:04.562Z,53.10
2018-03-06T07:26:32.933Z,51.93
2018-03-06T07:29:01.323Z,50.87
2018-03-06T07:31:29.738Z,49.73
2018-03-06T07:33:58.129Z,48.77
2018-03-06T07:36:26.478Z,50.30
2018-03-06T07:38:54.851Z,49.63
2018-03-06T07:41:23.215Z,53.70
2018-03-06T07:43:51.588Z,48.70
2018-03-06T07:46:19.994Z,51.97
2018-03-06T07:48:48.361Z,51.80
2018-03-06T07:51:16.946Z,52.87
2018-03-06T07:53:45.299Z,50.30
2018-03-06T07:56:13.705Z,47.87
2018-03-06T07:58:42.069Z,52.73
2018-03-06T08:01:10.576Z,50.87
2018-03-06T08:03:39.256Z,49.40
2018-03-06T08:06:07.597Z,54.73
2018-03-06T08:08:35.957Z,53.63
2018-03-06T08:11:04.381Z,50.17
2018-03-06T08:13:32.761Z,52.17
2018-03-06T08:16:01.124Z,50.93
2018-03-06T08:18:29.723Z,50.13
2018-03-06T08:20:58.143Z,50.13
2018-03-06T08:23:26.598Z,49.97
2018-03-06T08:25:54.976Z,48.00
2018-03-06T08:28:23.337Z,49.47
2018-03-06T08:30:51.761Z,49.83
2018-03-06T08:33:20.124Z,51.70
2018-03-06T08:35:48.551Z,49.40
2018-03-06T08:38:17.753Z,50.23
2018-03-06T08:40:46.103Z,48.23
2018-03-06T08:43:14.492Z,49.03
2018-03-06T08:45:42.855Z,49.80
2018-03-06T08:48:11.238Z,49.83
2018-03-06T08:50:39.604Z,50.93
2018-03-06T08:53:07.962Z,47.67
2018-03-06T08:55:36.345Z,48.97
2018-03-06T08:58:04.695Z,51.03
2018-03-06T09:00:33.089Z,48.73
2018-03-06T09:03:01.420Z,48.97
2018-03-06T09:05:30.671Z,50.67
2018-03-06T09:07:58.998Z,48.53
2018-03-06T09:10:28.169Z,47.90
2018-03-06T09:12:56.506Z,48.93
2018-03-06T09:15:24.848Z,50.67
2018-03-06T09:17:53.209Z,49.83
2018-03-06T09:20:21.566Z,51.13
2018-03-06T09:22:49.937Z,47.87
2018-03-06T09:25:18.307Z,48.33
2018-03-06T09:27:46.746Z,48.60
2018-03-06T09:30:15.193Z,47.33
2018-03-06T09:32:43.868Z,48.33
2018-03-06T09:35:12.258Z,52.87
2018-03-06T09:37:40.612Z,48.43
2018-03-06T09:40:09.009Z,48.13
2018-03-06T09:42:37.446Z,47.03
2018-03-06T09:45:05.808Z,49.13
2018-03-06T09:47:34.249Z,48.87
2018-03-06T09:50:02.627Z,48.10
2018-03-06T09:52:30.964Z,49.03
2018-03-06T09:55:00.076Z,48.63
2018-03-06T09:57:28.461Z,49.40
2018-03-06T09:59:56.963Z,47.83
2018-03-06T10:02:26.308Z,46.07
2018-03-06T10:04:54.636Z,46.70
2018-03-06T10:07:23.027Z,50.27
2018-03-06T10:09:51.401Z,48.67
2018-03-06T10:12:19.736Z,48.00
2018-03-06T10:14:48.857Z,46.77
2018-03-06T10:17:17.202Z,47.90
2018-03-06T10:19:45.553Z,50.10
2018-03-06T10:22:13.909Z,46.97
2018-03-06T10:24:42.272Z,46.60
2018-03-06T10:27:10.618Z,51.10
2018-03-06T10:29:39.784Z,48.27
2018-03-06T10:32:08.180Z,48.77
2018-03-06T10:34:36.788Z,48.73
2018-03-06T10:37:05.151Z,49.23
2018-03-06T10:39:33.515Z,51.40
2018-03-06T10:42:01.936Z,49.57
2018-03-06T10:44:31.048Z,49.00
2018-03-06T10:46:59.405Z,49.67
2018-03-06T10:49:28.534Z,50.87
2018-03-06T10:51:56.882Z,50.23
2018-03-06T10:54:26.065Z,49.77
2018-03-06T10:56:54.468Z,50.43
2018-03-06T10:59:23.594Z,48.40
2018-03-06T11:02:02.776Z,50.43
2018-03-06T11:04:31.916Z,51.37
2018-03-06T11:07:00.263Z,53.27
2018-03-06T11:09:29.390Z,49.83
2018-03-06T11:11:57.793Z,51.07
2018-03-06T11:14:26.181Z,50.33
2018-03-06T11:16:54.848Z,50.13
2018-03-06T11:19:23.247Z,51.10
2018-03-06T11:21:51.602Z,51.47
2018-03-06T11:24:19.976Z,48.23
2018-03-06T11:26:48.316Z,51.60
2018-03-06T11:29:17.455Z,52.43
2018-03-06T11:31:45.930Z,51.23
2018-03-06T11:34:14.280Z,52.23
2018-03-06T11:36:42.659Z,52.20
2018-03-06T11:39:11.813Z,52.37
2018-03-06T11:41:40.165Z,50.70
2018-03-06T11:44:08.520Z,54.00
2018-03-06T11:46:37.638Z,52.50
2018-03-06T11:49:06.008Z,52.53
2018-03-06T11:51:34.417Z,53.97
2018-03-06T11:54:02.769Z,52.17
2018-03-06T11:56:31.112Z,51.17
2018-03-06T11:59:00.261Z,53.20
2018-03-06T12:01:28.602Z,50.87
2018-03-06T12:03:57.738Z,53.20
2018-03-06T12:06:26.093Z,52.07
2018-03-06T12:08:54.460Z,52.60
2018-03-06T12:11:22.818Z,52.30
2018-03-06T12:13:51.175Z,50.97
2018-03-06T12:16:19.602Z,51.30
2018-03-06T12:18:47.905Z,53.00
2018-03-06T12:21:16.288Z,52.73
2018-03-06T12:23:44.781Z,53.93
2018-03-06T12:26:13.285Z,53.20
2018-03-06T12:28:41.622Z,53.73
2018-03-06T12:31:09.984Z,55.93
2018-03-06T12:33:38.384Z,52.80
2018-03-06T12:36:06.730Z,54.17
2018-03-06T12:38:35.095Z,51.53
2018-03-06T12:41:03.448Z,58.20
2018-03-06T12:43:31.828Z,53.50
2018-03-06T12:46:00.168Z,54.17
2018-03-06T12:48:28.520Z,52.57
2018-03-06T12:50:57.664Z,54.43
2018-03-06T12:53:26.021Z,52.03
2018-03-06T12:55:54.380Z,53.40
2018-03-06T12:58:22.879Z,55.07
2018-03-06T13:00:52.004Z,52.00
2018-03-06T13:03:20.388Z,56.33
2018-03-06T13:05:48.780Z,53.53
2018-03-06T13:08:17.128Z,54.73
2018-03-06T13:10:45.462Z,53.83
2018-03-06T13:13:13.841Z,54.00
2018-03-06T13:15:42.968Z,54.57
2018-03-06T13:18:11.336Z,53.47
2018-03-06T13:20:39.701Z,54.60
2018-03-06T13:23:08.061Z,53.50
2018-03-06T13:25:36.428Z,53.80
2018-03-06T13:28:04.826Z,52.20
2018-03-06T13:30:33.267Z,53.33
2018-03-06T13:33:01.629Z,51.70
2018-03-06T13:35:29.988Z,57.27
2018-03-06T13:37:59.120Z,54.80
2018-03-06T13:40:27.514Z,56.57
2018-03-06T13:42:55.892Z,55.00
2018-03-06T13:45:24.265Z,52.67
2018-03-06T13:47:52.709Z,53.63
2018-03-06T13:50:21.065Z,54.13
2018-03-06T13:52:49.422Z,53.03
2018-03-06T13:55:17.793Z,54.73
2018-03-06T13:57:46.140Z,52.77
2018-03-06T14:00:14.501Z,54.20
2018-03-06T14:02:43.708Z,53.87
2018-03-06T14:05:12.131Z,54.50
2018-03-06T14:07:40.475Z,54.80
2018-03-06T14:10:08.869Z,52.00
2018-03-06T14:12:37.266Z,55.23
2018-03-06T14:15:05.700Z,54.80
2018-03-06T14:17:34.930Z,53.47
2018-03-06T14:20:03.339Z,55.13
2018-03-06T14:22:31.732Z,53.50
2018-03-06T14:25:00.081Z,54.13
2018-03-06T14:27:28.432Z,57.27
2018-03-06T14:29:56.808Z,54.77
2018-03-06T14:32:25.521Z,54.13
2018-03-06T14:34:53.892Z,56.03
2018-03-06T14:37:22.321Z,53.27
2018-03-06T14:39:50.656Z,53.20
2018-03-06T14:42:19.074Z,52.10
2018-03-06T14:44:47.539Z,55.47
2018-03-06T14:47:15.968Z,51.53
2018-03-06T14:49:45.076Z,55.00
2018-03-06T14:52:13.637Z,56.13
2018-03-06T14:54:41.995Z,52.13
2018-03-06T14:57:10.353Z,53.07
2018-03-06T14:59:38.708Z,52.27
2018-03-06T15:02:07.123Z,54.20
2018-03-06T15:04:35.464Z,54.63
2018-03-06T15:07:03.818Z,55.90
2018-03-06T15:09:32.242Z,53.93
2018-03-06T15:12:00.614Z,53.00
2018-03-06T15:14:28.964Z,53.87
2018-03-06T15:16:57.329Z,52.87
2018-03-06T15:19:25.740Z,54.90
2018-03-06T15:21:54.083Z,53.43
2018-03-06T15:24:23.225Z,53.10
2018-03-06T15:26:51.555Z,54.80
2018-03-06T15:29:20.671Z,54.27
2018-03-06T15:31:49.017Z,52.60
2018-03-06T15:34:17.384Z,54.03
2018-03-06T15:36:45.756Z,55.13
2018-03-06T15:39:14.119Z,53.97
2018-03-06T15:41:42.772Z,57.90
2018-03-06T15:44:11.136Z,53.70
2018-03-06T15:46:40.291Z,52.60
2018-03-06T15:49:08.663Z,51.33
2018-03-06T15:51:37.047Z,51.70
2018-03-06T15:54:05.413Z,53.27
2018-03-06T15:56:33.762Z,53.33
2018-03-06T15:59:03.058Z,53.40
2018-03-06T16:01:32.170Z,53.03
2018-03-06T16:04:00.569Z,53.30
2018-03-06T16:06:28.929Z,50.87
2018-03-06T16:08:57.414Z,53.67
2018-03-06T16:11:25.831Z,53.67
2018-03-06T16:13:54.996Z,53.40
2018-03-06T16:16:23.545Z,51.90
2018-03-06T16:18:52.660Z,50.30
2018-03-06T16:21:21.024Z,52.17
2018-03-06T16:23:50.268Z,62.43
2018-03-06T16:26:18.630Z,58.83
2018-03-06T16:28:47.007Z,53.97
2018-03-06T16:31:15.358Z,52.90
2018-03-06T16:33:44.515Z,53.17
2018-03-06T16:36:13.034Z,50.27
2018-03-06T16:38:41.408Z,51.87
2018-03-06T16:41:10.531Z,54.30
2018-03-06T16:43:38.883Z,51.97
2018-03-06T16:46:08.026Z,51.43
2018-03-06T16:48:36.399Z,52.80
2018-03-06T16:51:04.768Z,51.93
2018-03-06T16:53:33.113Z,52.50
2018-03-06T16:56:01.520Z,53.83
2018-03-06T16:58:30.024Z,54.93
2018-03-06T17:00:58.439Z,53.17
2018-03-06T17:03:26.811Z,51.13
2018-03-06T17:05:55.171Z,55.13
2018-03-06T17:08:23.549Z,54.00
2018-03-06T17:10:51.901Z,50.87
2018-03-06T17:13:21.048Z,52.03
2018-03-06T17:15:49.541Z,50.73
2018-03-06T17:18:18.805Z,50.93
2018-03-06T17:20:47.171Z,50.67
2018-03-06T17:23:15.553Z,52.57
2018-03-06T17:25:43.948Z,52.63
2018-03-06T17:28:12.294Z,50.63
2018-03-06T17:30:41.036Z,51.50
2018-03-06T17:33:09.601Z,49.50
2018-03-06T17:35:37.964Z,50.03
2018-03-06T17:38:06.368Z,48.77
2018-03-06T17:40:34.725Z,50.90
2018-03-06T17:43:03.117Z,50.00
2018-03-06T17:45:31.596Z,47.87
2018-03-06T17:47:59.978Z,49.23
2018-03-06T17:50:28.344Z,48.30
2018-03-06T17:52:56.715Z,51.20
2018-03-06T17:55:25.064Z,49.17
2018-03-06T17:57:54.507Z,54.23
2018-03-06T18:00:23.777Z,51.00
2018-03-06T18:02:52.895Z,49.73
2018-03-06T18:05:21.240Z,47.73
2018-03-06T18:07:50.362Z,47.97
2018-03-06T18:10:18.740Z,47.53
2018-03-06T18:12:47.840Z,47.20
2018-03-06T18:15:16.276Z,48.67
2018-03-06T18:17:44.669Z,47.53
2018-03-06T18:20:13.062Z,48.67
2018-03-06T18:22:41.525Z,47.43
2018-03-06T18:25:09.992Z,48.13
2018-03-06T18:27:38.348Z,47.37
2018-03-06T18:30:06.718Z,48.23
2018-03-06T18:32:35.438Z,49.03
2018-03-06T18:35:03.793Z,47.33
2018-03-06T18:37:32.191Z,48.50
2018-03-06T18:40:00.635Z,47.87
2018-03-06T18:42:29.180Z,48.40
2018-03-06T18:44:57.563Z,47.50
2018-03-06T18:47:25.879Z,48.53
2018-03-06T18:50:03.848Z,47.77
2018-03-06T18:52:32.202Z,45.43
2018-03-06T18:55:00.667Z,48.00
2018-03-06T18:57:29.027Z,47.93
2018-03-06T19:03:26.956Z,60.78
2018-03-06T19:08:57.258Z,61.15
2018-03-06T19:11:25.627Z,51.10
2018-03-06T19:13:54.052Z,48.63
2018-03-06T19:16:22.455Z,50.83
2018-03-06T19:18:51.205Z,76.50
2018-03-06T19:21:19.532Z,59.53
2018-03-06T19:23:48.677Z,51.57
2018-03-06T19:26:17.055Z,49.23
2018-03-06T19:28:45.429Z,49.70
2018-03-06T19:31:13.786Z,51.97
2018-03-06T19:33:42.300Z,52.27
2018-03-06T19:38:45.478Z,48.60
2018-03-06T19:41:13.998Z,48.00
2018-03-06T19:43:42.390Z,50.30
2018-03-06T19:46:10.758Z,50.60
2018-03-06T19:48:39.998Z,47.00
2018-03-06T19:51:09.153Z,48.90
2018-03-06T19:53:37.574Z,50.40
2018-03-06T19:56:05.940Z,49.50
2018-03-06T19:58:34.305Z,49.47
2018-03-06T20:01:02.778Z,50.47
2018-03-06T20:03:31.225Z,47.77
2018-03-06T20:05:59.587Z,49.80
2018-03-06T20:08:28.747Z,49.37
2018-03-06T20:10:57.279Z,48.83
2018-03-06T20:13:25.627Z,51.57
2018-03-06T20:15:54.905Z,50.20
2018-03-06T20:18:23.417Z,51.60
2018-03-06T20:20:51.818Z,48.27
2018-03-06T20:23:20.456Z,51.17
2018-03-06T20:25:55.168Z,50.30
2018-03-06T20:28:23.574Z,47.97
2018-03-06T20:30:57.656Z,49.37
2018-03-06T20:33:26.120Z,50.73
2018-03-06T20:35:54.560Z,50.70
2018-03-06T20:38:29.457Z,54.87
2018-03-06T20:40:57.832Z,51.43
2018-03-06T20:43:26.357Z,48.43
2018-03-06T20:46:00.361Z,47.97
2018-03-06T20:48:29.524Z,49.97
2018-03-06T20:50:58.300Z,52.80
2018-03-06T20:53:32.264Z,57.80
2018-03-06T20:56:01.372Z,51.03
2018-03-06T20:58:29.925Z,49.47
2018-03-06T21:00:58.300Z,50.03
2018-03-06T21:03:26.767Z,50.70
2018-03-06T21:05:55.129Z,51.47
2018-03-06T21:08:23.510Z,50.23
2018-03-06T21:10:52.871Z,50.10
2018-03-06T21:13:22.013Z,50.97
2018-03-06T21:15:50.494Z,51.13
2018-03-06T21:18:18.841Z,50.60
2018-03-06T21:20:47.207Z,49.80
2018-03-06T21:23:16.344Z,49.73
2018-03-06T21:25:44.690Z,51.80
2018-03-06T21:28:13.112Z,50.83
2018-03-06T21:30:41.466Z,51.63
2018-03-06T21:33:09.902Z,51.97
2018-03-06T21:35:39.140Z,50.63
2018-03-06T21:38:08.243Z,49.63
2018-03-06T21:40:36.680Z,50.13
2018-03-06T21:43:04.993Z,50.40
2018-03-06T21:45:33.360Z,50.10
2018-03-06T21:48:02.485Z,49.70
2018-03-06T21:50:30.851Z,48.10
2018-03-06T21:52:59.213Z,51.77
2018-03-06T21:55:28.327Z,50.27
2018-03-06T21:57:56.676Z,50.83
2018-03-06T22:00:25.849Z,52.93
2018-03-06T22:02:54.224Z,52.47
2018-03-06T22:05:22.568Z,52.03
2018-03-06T22:07:50.961Z,52.70
2018-03-06T22:10:19.340Z,52.30
2018-03-06T22:12:47.661Z,51.10
2018-03-06T22:15:16.057Z,50.03
2018-03-06T22:17:44.390Z,52.70
2018-03-06T22:20:12.748Z,51.50
2018-03-06T22:22:44.794Z,50.43
2018-03-06T22:25:13.168Z,51.60
2018-03-06T22:27:41.567Z,51.43
2018-03-06T22:30:10.008Z,50.40
2018-03-06T22:32:38.441Z,69.03
2018-03-06T22:35:06.812Z,57.40
2018-03-06T22:37:35.167Z,53.17
2018-03-06T22:40:04.362Z,51.57
2018-03-06T22:42:33.492Z,51.33
2018-03-06T22:45:01.849Z,51.27
2018-03-06T22:47:30.217Z,49.23
2018-03-06T22:49:59.327Z,52.07
2018-03-06T22:52:27.674Z,52.40
2018-03-06T22:54:56.813Z,50.77
2018-03-06T22:57:25.210Z,50.10
2018-03-06T22:59:54.299Z,49.30
2018-03-06T23:02:22.682Z,49.50
2018-03-06T23:04:51.019Z,49.77
2018-03-06T23:07:20.148Z,49.00
2018-03-06T23:09:48.477Z,49.83
2018-03-06T23:12:16.944Z,51.83
2018-03-06T23:14:45.317Z,53.07
2018-03-06T23:17:13.738Z,49.43
2018-03-06T23:19:42.115Z,54.40
2018-03-06T23:22:10.495Z,59.97
2018-03-06T23:24:38.887Z,55.70
2018-03-06T23:27:07.255Z,52.07
2018-03-06T23:29:35.621Z,53.87
2018-03-06T23:32:04.769Z,50.70
2018-03-06T23:34:33.145Z,53.27
2018-03-06T23:37:01.522Z,51.17
2018-03-06T23:39:29.967Z,51.30
2018-03-06T23:41:58.336Z,51.67
2018-03-06T23:44:26.730Z,50.30
2018-03-06T23:46:55.093Z,51.70
2018-03-06T23:49:23.452Z,50.93
2018-03-06T23:51:52.155Z,49.67
2018-03-06T23:54:20.526Z,53.97
2018-03-06T23:56:48.917Z,51.87
2018-03-06T23:59:17.289Z,51.20
